Time;durP1;ratioP1;P1;durP2;ratioP2;P2;SDS_P1;SDS_P2;PMS_P1;PMS_P2;Temp;Humidity;BMP_temperature;BMP_pressure;BME280_temperature;BME280_humidity;BME280_pressure;Samples;Min_cycle;Max_cycle;Signal;HPM_P1;HPM_P2
2022/05/06 00:01:29;;;;;;;36.58;25.15;;;;;;;13.45;75.81;102537.34;5050314;28;20047;-46
2022/05/06 00:03:54;;;;;;;38.05;25.48;;;;;;;13.43;75.90;102543.28;5057767;28;20575;-48
2022/05/06 00:06:20;;;;;;;36.55;24.88;;;;;;;13.47;75.91;102540.88;5052857;28;20044;-45
2022/05/06 00:08:46;;;;;;;38.22;24.85;;;;;;;13.45;75.95;102541.63;5053021;28;20496;-46
2022/05/06 00:11:11;;;;;;;39.13;24.77;;;;;;;13.44;75.66;102538.16;5056748;28;20024;-47
2022/05/06 00:13:37;;;;;;;38.78;25.55;;;;;;;13.44;75.64;102540.75;5054407;28;20768;-49
2022/05/06 00:16:03;;;;;;;36.85;25.90;;;;;;;13.43;75.84;102548.44;5052879;28;20025;-49
2022/05/06 00:18:31;;;;;;;41.58;26.58;;;;;;;13.35;75.98;102538.66;5059001;28;20474;-46
2022/05/06 00:20:59;;;;;;;38.70;26.30;;;;;;;13.31;75.98;102539.34;5054312;28;20487;-50
2022/05/06 00:23:25;;;;;;;43.30;26.55;;;;;;;13.26;76.52;102539.94;5052900;28;21724;-50
2022/05/06 00:25:50;;;;;;;39.15;26.77;;;;;;;13.23;76.69;102545.00;5053066;28;20025;-45
2022/05/06 00:28:16;;;;;;;39.33;26.23;;;;;;;13.17;76.31;102545.56;5054832;28;20028;-46
2022/05/06 00:30:41;;;;;;;40.45;26.15;;;;;;;13.16;76.82;102541.19;5051440;28;20035;-47
2022/05/06 00:33:09;;;;;;;40.13;27.27;;;;;;;13.08;76.74;102540.88;5056978;28;20036;-45
2022/05/06 00:35:37;;;;;;;41.67;26.45;;;;;;;13.10;77.12;102543.50;5058023;28;20461;-48
2022/05/06 00:38:04;;;;;;;39.15;26.38;;;;;;;13.11;76.86;102543.59;5060402;28;20029;-47
2022/05/06 00:40:29;;;;;;;40.28;27.35;;;;;;;12.99;77.08;102553.38;5058269;28;20028;-49
2022/05/06 00:42:56;;;;;;;39.90;26.95;;;;;;;13.01;77.02;102548.28;5059154;28;20039;-50
2022/05/06 00:45:30;;;;;;;41.38;26.67;;;;;;;12.98;76.91;102551.59;5061212;28;20049;-45
2022/05/06 00:47:56;;;;;;;38.53;25.52;;;;;;;12.99;77.05;102552.50;5055018;28;20094;-46
2022/05/06 00:50:22;;;;;;;39.78;25.95;;;;;;;12.94;77.41;102541.06;5057448;28;20456;-49
2022/05/06 00:52:47;;;;;;;46.13;28.85;;;;;;;12.96;77.33;102542.00;5060498;28;20036;-49
2022/05/06 00:55:13;;;;;;;39.50;26.58;;;;;;;12.88;77.35;102541.69;5060099;28;20037;-49
2022/05/06 00:57:39;;;;;;;41.75;27.13;;;;;;;12.86;77.45;102540.72;5060778;28;20037;-48
2022/05/06 01:00:20;;;;;;;39.53;27.00;;;;;;;12.85;77.68;102547.56;5057481;28;20035;-48
2022/05/06 01:02:47;;;;;;;41.83;26.88;;;;;;;12.77;77.81;102551.50;5058486;28;20727;-47
2022/05/06 01:05:14;;;;;;;42.90;26.80;;;;;;;12.75;77.61;102549.69;5061522;22;20053;-62
2022/05/06 01:07:40;;;;;;;40.92;27.00;;;;;;;12.66;77.88;102550.13;5037977;28;20033;-62
2022/05/06 01:10:06;;;;;;;38.95;27.77;;;;;;;12.66;78.13;102555.28;5040200;28;20033;-62
2022/05/06 01:12:32;;;;;;;40.17;27.15;;;;;;;12.61;78.47;102555.06;5038808;28;20025;-62
2022/05/06 01:14:57;;;;;;;38.05;26.00;;;;;;;12.54;79.03;102546.97;5039584;28;20037;-62
2022/05/06 01:17:23;;;;;;;40.83;26.35;;;;;;;12.66;77.90;102554.41;5038633;28;20025;-62
2022/05/06 01:19:48;;;;;;;41.88;27.08;;;;;;;12.57;78.23;102555.75;5036170;28;20042;-62
2022/05/06 01:22:14;;;;;;;39.97;26.25;;;;;;;12.61;78.33;102552.50;5037646;28;20072;-62
2022/05/06 01:24:40;;;;;;;40.95;26.65;;;;;;;12.59;77.89;102559.28;5037727;28;20047;-62
2022/05/06 01:27:14;;;;;;;43.13;28.05;;;;;;;12.59;78.15;102561.88;5039778;28;20033;-62
2022/05/06 01:29:40;;;;;;;41.05;25.92;;;;;;;12.52;78.25;102564.09;5039534;28;20025;-62
2022/05/06 01:32:07;;;;;;;44.53;28.20;;;;;;;12.47;78.61;102563.00;5037857;28;20033;-62
2022/05/06 01:34:37;;;;;;;47.40;28.25;;;;;;;12.47;78.60;102566.44;5039352;28;20064;-62
2022/05/06 01:37:05;;;;;;;39.28;26.50;;;;;;;12.44;78.60;102561.16;5039640;28;20029;-62
2022/05/06 01:39:34;;;;;;;42.25;27.42;;;;;;;12.32;79.14;102561.47;5037826;28;20029;-62
2022/05/06 01:42:06;;;;;;;39.30;26.05;;;;;;;12.30;79.20;102565.63;5037445;28;20063;-62
2022/05/06 01:44:39;;;;;;;43.10;28.20;;;;;;;12.28;79.39;102568.97;5036506;28;20060;-62
2022/05/06 01:47:10;;;;;;;45.30;27.13;;;;;;;12.20;79.93;102563.44;5035248;28;20036;-62
2022/05/06 01:49:38;;;;;;;39.72;26.75;;;;;;;12.14;80.18;102560.56;5036758;28;20029;-62
2022/05/06 01:52:06;;;;;;;38.35;25.90;;;;;;;12.16;80.23;102564.09;5036992;28;20140;-62
2022/05/06 01:54:32;;;;;;;47.65;28.25;;;;;;;12.09;80.76;102559.47;5036415;28;20518;-62
2022/05/06 01:56:59;;;;;;;45.53;27.95;;;;;;;12.14;80.76;102565.72;5039155;28;20136;-62
2022/05/06 01:59:25;;;;;;;42.95;28.77;;;;;;;12.02;81.32;102557.41;5038356;28;20049;-62
2022/05/06 02:01:50;;;;;;;45.90;28.48;;;;;;;11.98;81.43;102560.63;5039634;28;20025;-62
2022/05/06 02:07:00;;;;;;;47.75;30.00;;;;;;;11.95;81.82;102561.38;5041336;28;20051;-62
2022/05/06 02:09:25;;;;;;;49.85;28.38;;;;;;;12.00;82.31;102559.00;5034084;28;20041;-62
2022/05/06 02:11:53;;;;;;;46.45;29.13;;;;;;;12.03;82.36;102560.03;5037075;28;20024;-62
2022/05/06 02:14:19;;;;;;;47.95;29.50;;;;;;;11.91;82.42;102553.41;5036236;28;20025;-62
2022/05/06 02:16:45;;;;;;;61.15;30.60;;;;;;;11.88;82.83;102563.53;5037685;28;20090;-61
2022/05/06 02:19:10;;;;;;;48.03;29.20;;;;;;;11.94;82.89;102566.41;5036572;28;20817;-62
2022/05/06 02:21:35;;;;;;;46.45;28.98;;;;;;;11.90;83.02;102561.94;5038875;28;20029;-62
2022/05/06 02:24:01;;;;;;;44.70;29.30;;;;;;;11.90;83.22;102564.53;5040080;28;20116;-62
2022/05/06 02:26:26;;;;;;;47.25;30.92;;;;;;;11.90;83.36;102562.81;5035813;28;20033;-62
2022/05/06 02:28:52;;;;;;;47.70;30.00;;;;;;;11.90;83.85;102557.69;5039423;28;20044;-62
2022/05/06 02:34:01;;;;;;;47.40;29.70;;;;;;;11.88;83.92;102564.44;5035786;28;20078;-62
2022/05/06 02:36:26;;;;;;;50.17;30.48;;;;;;;11.81;84.44;102568.38;5037661;28;20131;-62
2022/05/06 02:38:52;;;;;;;51.72;31.25;;;;;;;11.78;84.76;102569.91;5039324;28;20032;-62
2022/05/06 02:41:17;;;;;;;58.70;32.13;;;;;;;11.85;85.01;102564.28;5032976;28;20083;-62
2022/05/06 02:43:43;;;;;;;57.10;33.78;;;;;;;11.84;84.99;102566.78;5039009;28;20029;-62
2022/05/06 02:46:08;;;;;;;54.22;32.58;;;;;;;11.86;85.07;102566.06;5039402;28;20587;-62
2022/05/06 02:48:34;;;;;;;54.33;32.90;;;;;;;11.85;85.30;102561.72;5035033;28;20037;-62
2022/05/06 02:50:59;;;;;;;51.88;31.33;;;;;;;11.92;85.28;102570.63;5021409;28;20813;-62
2022/05/06 02:53:25;;;;;;;58.13;32.22;;;;;;;11.87;85.24;102562.66;5036448;28;20039;-62
2022/05/06 02:55:50;;;;;;;57.45;32.88;;;;;;;11.88;85.54;102566.13;5038677;28;20485;-62
2022/05/06 02:58:16;;;;;;;59.92;32.97;;;;;;;11.83;85.83;102565.91;5035330;28;20045;-62
2022/05/06 03:00:42;;;;;;;55.60;32.17;;;;;;;11.86;85.93;102565.16;5039691;28;20396;-62
2022/05/06 03:03:08;;;;;;;54.45;32.45;;;;;;;11.84;86.29;102566.78;5038099;28;20037;-62
2022/05/06 03:05:34;;;;;;;54.40;32.28;;;;;;;11.93;86.02;102573.28;5033954;28;20045;-62
2022/05/06 03:07:59;;;;;;;55.00;32.88;;;;;;;11.91;86.26;102568.88;5037616;28;20170;-62
2022/05/06 03:10:25;;;;;;;57.92;32.28;;;;;;;11.90;86.46;102565.41;5036224;28;21606;-62
2022/05/06 03:12:55;;;;;;;54.85;32.67;;;;;;;11.88;86.71;102564.44;5037909;28;20475;-62
2022/05/06 03:15:21;;;;;;;58.80;32.47;;;;;;;11.90;86.44;102559.38;5037246;28;20048;-62
2022/05/06 03:17:46;;;;;;;60.00;32.30;;;;;;;11.91;86.62;102563.72;5039927;28;20053;-62
2022/05/06 03:20:12;;;;;;;54.72;32.03;;;;;;;11.89;86.54;102560.16;5039207;28;20033;-62
2022/05/06 03:22:45;;;;;;;55.13;31.98;;;;;;;11.89;86.70;102555.91;5040157;28;20052;-62
2022/05/06 03:25:12;;;;;;;51.83;31.98;;;;;;;11.82;87.11;102556.38;5037057;28;20562;-62
2022/05/06 03:30:22;;;;;;;52.80;31.23;;;;;;;11.85;87.01;102548.81;5037052;28;20391;-62
2022/05/06 03:32:48;;;;;;;52.03;31.02;;;;;;;11.83;86.89;102558.19;5033495;28;20036;-62
2022/05/06 03:35:13;;;;;;;50.85;30.70;;;;;;;11.81;87.30;102557.19;5035653;28;20057;-61
2022/05/06 03:37:39;;;;;;;49.78;29.50;;;;;;;11.84;87.10;102556.47;5039555;28;20094;-62
2022/05/06 03:40:06;;;;;;;46.90;28.63;;;;;;;11.82;86.46;102558.97;5036344;28;20021;-62
2022/05/06 03:42:31;;;;;;;47.05;26.30;;;;;;;11.78;86.56;102563.06;5034456;28;20052;-61
2022/05/06 03:44:57;;;;;;;43.00;27.02;;;;;;;11.85;86.24;102561.72;5036177;28;20076;-62
2022/05/06 03:47:22;;;;;;;43.78;27.55;;;;;;;11.80;86.52;102561.44;5035293;28;22832;-62
2022/05/06 03:52:34;;;;;;;43.58;26.67;;;;;;;11.70;87.03;102563.47;5037743;28;20554;-62
2022/05/06 03:55:00;;;;;;;43.88;26.05;;;;;;;11.69;87.10;102565.16;5036720;28;20059;-62
2022/05/06 03:57:25;;;;;;;45.25;26.38;;;;;;;11.69;87.30;102562.59;5036298;28;20071;-62
2022/05/06 03:59:51;;;;;;;46.75;26.65;;;;;;;11.72;87.18;102567.03;5037324;28;20028;-62
2022/05/06 04:02:16;;;;;;;47.72;25.95;;;;;;;11.67;87.42;102566.78;5029715;28;20037;-62
2022/05/06 04:04:42;;;;;;;45.85;26.45;;;;;;;11.66;87.43;102566.72;5038515;28;20063;-62
2022/05/06 04:07:07;;;;;;;44.47;26.67;;;;;;;11.66;87.46;102564.16;5036955;28;20142;-62
2022/05/06 04:09:32;;;;;;;46.28;26.80;;;;;;;11.66;87.69;102557.28;5031831;28;20492;-62
2022/05/06 04:11:59;;;;;;;43.88;25.75;;;;;;;11.68;87.36;102575.41;5033829;28;20102;-62
2022/05/06 04:14:25;;;;;;;39.85;24.27;;;;;;;11.66;87.33;102570.19;5039103;28;20052;-62
2022/05/06 04:16:50;;;;;;;40.08;23.38;;;;;;;11.64;87.21;102578.63;5033997;28;20060;-62
2022/05/06 04:19:16;;;;;;;39.35;23.85;;;;;;;11.63;87.19;102575.16;5034565;28;20988;-62
2022/05/06 04:24:25;;;;;;;34.58;22.05;;;;;;;11.58;87.62;102573.16;5033685;28;20222;-62
2022/05/06 04:26:50;;;;;;;34.40;21.77;;;;;;;11.58;87.40;102571.47;5038033;28;20115;-62
2022/05/06 04:29:16;;;;;;;33.65;21.35;;;;;;;11.54;87.32;102577.28;5035206;28;20029;-62
2022/05/06 04:31:41;;;;;;;32.80;19.83;;;;;;;11.55;86.88;102579.06;5029012;28;20021;-62
2022/05/06 04:34:07;;;;;;;34.08;19.27;;;;;;;11.57;86.60;102580.00;5027673;28;20115;-62
2022/05/06 04:36:33;;;;;;;31.77;19.38;;;;;;;11.57;86.70;102573.97;5031079;28;20037;-62
2022/05/06 04:38:58;;;;;;;31.15;19.75;;;;;;;11.53;86.28;102581.56;5034980;28;20056;-62
2022/05/06 04:41:24;;;;;;;29.85;18.77;;;;;;;11.55;86.08;102573.91;5034401;28;20091;-61
2022/05/06 04:43:50;;;;;;;30.05;18.35;;;;;;;11.50;86.30;102577.91;5037973;28;20029;-61
2022/05/06 04:46:15;;;;;;;29.38;18.73;;;;;;;11.42;86.36;102586.97;5033167;28;20029;-62
2022/05/06 04:48:42;;;;;;;30.23;18.33;;;;;;;11.41;86.76;102596.38;5037679;28;20095;-62
2022/05/06 04:51:07;;;;;;;28.52;17.92;;;;;;;11.42;86.65;102593.00;5033996;28;20041;-62
2022/05/06 04:53:32;;;;;;;27.77;17.65;;;;;;;11.36;86.78;102597.81;5035818;28;20051;-62
2022/05/06 04:55:58;;;;;;;26.15;17.08;;;;;;;11.30;86.58;102600.06;5038860;28;20120;-62
2022/05/06 04:58:23;;;;;;;27.10;17.38;;;;;;;11.29;86.87;102606.03;5037762;28;20033;-62
2022/05/06 05:00:49;;;;;;;28.38;18.40;;;;;;;11.32;86.72;102605.31;5035733;28;20120;-62
2022/05/06 05:03:15;;;;;;;27.45;16.35;;;;;;;11.32;85.81;102606.19;5035015;28;20025;-62
2022/05/06 05:05:41;;;;;;;25.55;16.42;;;;;;;11.28;86.30;102602.56;5036074;28;20056;-62
2022/05/06 05:08:08;;;;;;;23.67;15.88;;;;;;;11.30;86.28;102607.81;5038993;28;20044;-62
2022/05/06 05:10:35;;;;;;;28.17;16.75;;;;;;;11.27;86.89;102616.22;5035751;28;20527;-61
2022/05/06 05:13:01;;;;;;;28.38;16.30;;;;;;;11.27;86.74;102625.66;5018590;28;20037;-62
2022/05/06 05:15:27;;;;;;;24.48;16.95;;;;;;;11.27;86.73;102629.09;5033860;28;20517;-62
2022/05/06 05:17:52;;;;;;;23.52;16.35;;;;;;;11.28;87.04;102632.56;5037023;28;20112;-61
2022/05/06 05:20:18;;;;;;;23.38;16.30;;;;;;;11.28;86.85;102636.06;5038386;28;20514;-60
2022/05/06 05:22:43;;;;;;;28.38;16.08;;;;;;;11.28;86.90;102635.13;5039286;28;20025;-60
2022/05/06 05:25:09;;;;;;;22.95;15.23;;;;;;;11.30;86.63;102632.66;5041835;28;20070;-60
2022/05/06 05:27:38;;;;;;;21.67;14.90;;;;;;;11.30;86.78;102632.66;5041038;28;20067;-61
2022/05/06 05:30:06;;;;;;;22.23;15.52;;;;;;;11.38;86.19;102639.09;5039679;28;20167;-60
2022/05/06 05:32:32;;;;;;;21.17;14.70;;;;;;;11.30;85.71;102635.25;5038001;28;20476;-60
2022/05/06 05:34:58;;;;;;;20.35;14.30;;;;;;;11.30;85.91;102637.81;5043367;28;20033;-60
2022/05/06 05:37:23;;;;;;;19.88;13.98;;;;;;;11.25;85.60;102630.72;5039841;28;20074;-61
2022/05/06 05:39:48;;;;;;;20.58;14.13;;;;;;;11.26;86.08;102636.75;5039256;28;20487;-60
2022/05/06 05:42:24;;;;;;;21.00;13.98;;;;;;;11.34;86.47;102632.00;5037224;28;20116;-60
2022/05/06 05:50:18;;;;;;;24.00;14.90;;;;;;;11.26;86.78;102637.63;5039952;28;20114;-60
2022/05/06 05:52:44;;;;;;;22.10;14.70;;;;;;;11.26;86.93;102636.75;5041206;28;20034;-60
2022/05/06 05:55:10;;;;;;;23.50;14.82;;;;;;;11.34;87.21;102638.03;5037764;28;20029;-60
2022/05/06 05:57:36;;;;;;;20.77;14.88;;;;;;;11.31;87.55;102634.44;5039577;28;20029;-60
2022/05/06 06:00:03;;;;;;;19.90;13.93;;;;;;;11.32;87.28;102628.47;5039753;28;20029;-60
2022/05/06 06:02:28;;;;;;;21.52;14.73;;;;;;;11.33;86.87;102632.81;5042854;28;20024;-59
2022/05/06 06:04:55;;;;;;;24.15;14.73;;;;;;;11.31;86.32;102625.00;5039624;28;20061;-60
2022/05/06 06:07:20;;;;;;;19.95;14.05;;;;;;;11.27;86.50;102626.53;5037537;28;20501;-60
2022/05/06 06:09:45;;;;;;;20.40;13.90;;;;;;;11.26;86.73;102629.03;5039057;28;20128;-60
2022/05/06 06:12:11;;;;;;;20.17;14.32;;;;;;;11.28;86.84;102637.72;5043042;28;20087;-60
2022/05/06 06:14:36;;;;;;;20.35;13.70;;;;;;;11.34;86.61;102634.59;5039428;28;20033;-60
2022/05/06 06:17:02;;;;;;;23.52;14.95;;;;;;;11.32;86.88;102633.63;5042401;28;20041;-60
2022/05/06 06:19:28;;;;;;;21.08;13.65;;;;;;;11.33;86.07;102635.41;5037380;28;20608;-60
2022/05/06 06:21:53;;;;;;;19.20;13.75;;;;;;;11.31;86.72;102630.16;5042762;28;20025;-60
2022/05/06 06:24:19;;;;;;;20.52;14.90;;;;;;;11.31;87.08;102634.44;5036179;28;20036;-59
2022/05/06 06:26:45;;;;;;;22.15;15.00;;;;;;;11.27;86.55;102633.38;5042280;28;20801;-60
2022/05/06 06:29:11;;;;;;;22.83;14.88;;;;;;;11.27;86.77;102626.53;5035764;28;20079;-60
2022/05/06 06:31:38;;;;;;;19.55;13.88;;;;;;;11.28;86.73;102624.84;5039159;28;20061;-60
2022/05/06 06:34:03;;;;;;;19.90;13.60;;;;;;;11.32;86.88;102626.78;5037914;28;20485;-60
2022/05/06 06:36:29;;;;;;;21.02;14.27;;;;;;;11.30;86.82;102627.53;5036262;28;20040;-60
2022/05/06 06:38:55;;;;;;;21.27;14.15;;;;;;;11.37;86.66;102629.59;5038819;28;20037;-60
2022/05/06 06:41:23;;;;;;;19.95;13.57;;;;;;;11.44;86.72;102631.69;5040753;28;20479;-59
2022/05/06 06:43:49;;;;;;;22.50;14.45;;;;;;;11.47;87.52;102637.91;5044150;28;20710;-59
2022/05/06 06:46:15;;;;;;;24.58;15.35;;;;;;;11.54;87.42;102646.84;5043956;28;20031;-60
2022/05/06 06:48:41;;;;;;;29.75;14.95;;;;;;;11.49;87.07;102640.56;5046154;28;20115;-58
2022/05/06 06:51:07;;;;;;;23.45;15.57;;;;;;;11.53;87.51;102642.50;5045620;28;20124;-57
2022/05/06 06:53:33;;;;;;;24.10;16.58;;;;;;;11.61;88.40;102648.94;5045175;28;20108;-58
2022/05/06 06:55:58;;;;;;;23.52;16.05;;;;;;;11.59;87.76;102642.81;5045436;28;20119;-57
2022/05/06 06:58:25;;;;;;;24.05;16.73;;;;;;;11.69;87.92;102655.34;5046143;28;20052;-58
2022/05/06 07:00:50;;;;;;;25.60;16.85;;;;;;;11.75;88.05;102662.53;5039606;28;20036;-57
2022/05/06 07:03:16;;;;;;;25.20;17.02;;;;;;;11.77;88.36;102648.94;5048817;28;20025;-58
2022/05/06 07:13:53;;;;;;;29.38;19.52;;;;;;;11.91;87.66;102665.13;5056536;28;20514;-57
2022/05/06 07:16:19;;;;;;;33.40;20.90;;;;;;;12.01;87.78;102669.03;5048912;28;20111;-58
2022/05/06 07:18:45;;;;;;;32.97;20.83;;;;;;;12.02;87.65;102665.69;5046806;28;20033;-57
2022/05/06 07:21:10;;;;;;;29.70;19.63;;;;;;;12.04;87.62;102662.34;5047360;28;20723;-57
2022/05/06 07:23:36;;;;;;;32.33;21.13;;;;;;;12.01;87.76;102666.47;5047622;28;20062;-57
2022/05/06 07:26:02;;;;;;;35.85;21.40;;;;;;;12.02;87.65;102660.53;5046764;28;20024;-57
2022/05/06 07:28:27;;;;;;;33.10;21.33;;;;;;;12.03;87.74;102670.91;5041603;28;20076;-58
2022/05/06 07:30:53;;;;;;;33.88;21.20;;;;;;;12.05;87.67;102668.41;5039172;28;20045;-59
2022/05/06 07:33:18;;;;;;;33.80;21.55;;;;;;;12.13;87.94;102674.81;5037802;28;20049;-57
2022/05/06 07:35:43;;;;;;;34.47;21.13;;;;;;;12.23;87.58;102683.91;5047897;28;20087;-58
2022/05/06 07:38:09;;;;;;;34.88;22.42;;;;;;;12.25;87.79;102680.59;5045045;28;20518;-59
2022/05/06 07:40:34;;;;;;;35.30;22.00;;;;;;;12.27;87.78;102685.84;5042740;28;20075;-59
2022/05/06 07:43:00;;;;;;;34.50;22.02;;;;;;;12.27;87.83;102684.16;5045147;28;20039;-57
2022/05/06 07:45:25;;;;;;;35.28;22.38;;;;;;;12.25;87.10;102679.72;5046183;28;20646;-57
2022/05/06 07:47:50;;;;;;;36.38;23.70;;;;;;;12.31;87.61;102683.47;5046136;28;20021;-57
2022/05/06 07:50:16;;;;;;;36.00;22.70;;;;;;;12.32;87.63;102686.97;5045725;28;20112;-57
2022/05/06 07:52:41;;;;;;;38.00;23.55;;;;;;;12.34;87.53;102686.22;5046610;28;20033;-58
2022/05/06 07:55:10;;;;;;;39.72;25.83;;;;;;;12.29;87.34;102682.53;5044140;28;20054;-57
2022/05/06 07:57:35;;;;;;;37.58;24.08;;;;;;;12.40;87.50;102692.50;5046760;28;20080;-58
2022/05/06 08:00:01;;;;;;;38.38;24.17;;;;;;;12.42;87.73;102693.47;5044921;28;20470;-57
2022/05/06 08:05:27;;;;;;;36.22;24.08;;;;;;;12.56;87.14;102695.94;5029694;28;20053;-58
2022/05/06 08:07:53;;;;;;;39.85;23.40;;;;;;;12.63;86.98;102701.38;5043464;28;20055;-57
2022/05/06 08:10:19;;;;;;;37.33;23.85;;;;;;;12.59;86.74;102696.06;5047077;28;20044;-58
2022/05/06 08:12:44;;;;;;;36.25;24.48;;;;;;;12.61;86.26;102701.28;5043507;28;20029;-57
2022/05/06 08:15:10;;;;;;;37.13;24.42;;;;;;;12.63;86.27;102701.38;5044906;28;20025;-57
2022/05/06 08:17:39;;;;;;;38.38;24.10;;;;;;;12.60;85.73;102695.25;5040100;28;20415;-57
2022/05/06 08:20:06;;;;;;;37.10;23.83;;;;;;;12.65;85.70;102698.06;5046918;28;20082;-57
2022/05/06 08:22:32;;;;;;;36.15;23.33;;;;;;;12.63;85.74;102696.22;5042618;28;20033;-57
2022/05/06 08:24:57;;;;;;;36.10;23.85;;;;;;;12.67;85.86;102698.13;5043272;28;20112;-57
2022/05/06 08:27:22;;;;;;;42.03;25.30;;;;;;;12.69;85.91;102689.66;5047393;28;20036;-57
2022/05/06 08:29:48;;;;;;;40.20;25.40;;;;;;;12.76;86.07;102691.72;5044416;28;20064;-57
2022/05/06 08:32:13;;;;;;;39.72;25.92;;;;;;;12.81;85.46;102698.00;5043598;28;20024;-58
2022/05/06 08:34:39;;;;;;;39.25;24.38;;;;;;;12.81;84.53;102681.63;5044366;28;20375;-58
2022/05/06 08:37:04;;;;;;;38.20;24.27;;;;;;;12.84;84.65;102692.09;5047012;28;20405;-58
2022/05/06 08:39:29;;;;;;;36.95;22.77;;;;;;;12.91;84.22;102688.97;5046541;28;20033;-58
2022/05/06 08:41:56;;;;;;;34.55;22.58;;;;;;;12.99;84.72;102689.34;5043967;28;20033;-58
2022/05/06 08:52:43;;;;;;;33.05;21.42;;;;;;;13.39;82.55;102684.34;5031516;28;20095;-57
2022/05/06 08:55:09;;;;;;;31.40;20.85;;;;;;;13.39;81.76;102677.47;5044453;28;20052;-59
2022/05/06 08:57:35;;;;;;;33.10;20.92;;;;;;;13.51;82.46;102671.09;5046277;28;20116;-59
2022/05/06 09:00:02;;;;;;;31.13;20.52;;;;;;;13.61;82.46;102669.00;5047508;28;20430;-58
2022/05/06 09:02:27;;;;;;;34.65;22.50;;;;;;;13.65;81.62;102670.91;5044962;28;20028;-59
2022/05/06 09:04:53;;;;;;;36.50;23.90;;;;;;;13.66;81.73;102676.97;5050331;28;20403;-57
2022/05/06 09:07:21;;;;;;;37.20;22.33;;;;;;;13.63;81.10;102675.13;5047334;28;20048;-59
2022/05/06 09:10:09;;;;;;;33.88;22.45;;;;;;;13.79;81.60;102673.22;5048060;28;20470;-58
2022/05/06 09:12:46;;;;;;;32.33;21.25;;;;;;;13.89;81.61;102676.28;5042599;28;20458;-58
2022/05/06 09:17:57;;;;;;;31.80;19.48;;;;;;;14.22;80.63;102679.41;5049883;28;20556;-58
2022/05/06 09:20:24;;;;;;;31.70;20.55;;;;;;;14.44;80.49;102675.13;5047921;28;20033;-58
2022/05/06 09:22:53;;;;;;;28.83;19.27;;;;;;;14.65;79.23;102676.03;5045879;28;20475;-58
2022/05/06 09:25:59;;;;;;;31.55;20.95;;;;;;;14.83;79.99;102675.88;5046207;28;20078;-58
2022/05/06 09:28:28;;;;;;;31.95;20.15;;;;;;;14.78;77.64;102672.22;5050442;28;20467;-58
2022/05/06 09:31:00;;;;;;;33.60;20.70;;;;;;;14.83;78.79;102670.69;5049175;28;20032;-58
2022/05/06 09:33:28;;;;;;;33.55;20.88;;;;;;;15.00;78.54;102668.75;5045597;28;20032;-58
2022/05/06 09:35:55;;;;;;;31.08;20.05;;;;;;;15.11;78.08;102669.19;5052586;28;20028;-58
2022/05/06 09:38:21;;;;;;;33.17;20.00;;;;;;;15.29;77.18;102660.38;5042483;28;20116;-58
2022/05/06 09:40:47;;;;;;;30.48;19.70;;;;;;;15.46;77.14;102671.34;5049266;28;20024;-58
2022/05/06 09:43:19;;;;;;;30.30;19.05;;;;;;;15.62;76.39;102659.88;5047096;28;20029;-58
2022/05/06 09:45:46;;;;;;;26.63;17.55;;;;;;;15.73;73.81;102648.19;5044808;28;21787;-58
2022/05/06 09:48:14;;;;;;;24.83;16.95;;;;;;;15.86;74.18;102654.69;5045742;28;20103;-58
2022/05/06 09:50:44;;;;;;;26.30;16.58;;;;;;;15.95;73.44;102654.09;5046756;28;20111;-58
2022/05/06 09:53:11;;;;;;;27.25;17.58;;;;;;;15.99;72.67;102654.25;5047167;28;20037;-58
2022/05/06 09:55:39;;;;;;;26.70;17.65;;;;;;;16.15;73.52;102647.88;5044073;28;20035;-58
2022/05/06 09:58:06;;;;;;;28.83;17.50;;;;;;;16.27;72.69;102650.00;5048708;28;20025;-59
2022/05/06 10:00:38;;;;;;;27.50;17.60;;;;;;;16.30;72.05;102653.56;5043126;28;20402;-58
2022/05/06 10:03:05;;;;;;;28.00;16.60;;;;;;;16.46;71.87;102648.91;5049981;28;20548;-58
2022/05/06 10:05:33;;;;;;;25.60;16.13;;;;;;;16.63;71.13;102648.59;5042464;28;20076;-58
2022/05/06 10:08:03;;;;;;;25.48;15.68;;;;;;;16.65;70.02;102645.16;5048784;28;20027;-58
2022/05/06 10:10:33;;;;;;;25.42;16.17;;;;;;;16.78;69.14;102647.34;5046255;28;20794;-58
2022/05/06 10:13:02;;;;;;;24.95;15.23;;;;;;;16.93;69.29;102642.63;5049132;28;20075;-58
2022/05/06 10:15:29;;;;;;;25.00;14.48;;;;;;;17.11;68.25;102637.97;5046469;28;20083;-60
2022/05/06 10:17:59;;;;;;;26.27;15.40;;;;;;;17.25;67.98;102634.88;5043801;28;20042;-61
2022/05/06 10:20:37;;;;;;;23.83;14.57;;;;;;;17.42;68.56;102634.53;5046587;28;20040;-60
2022/05/06 10:23:07;;;;;;;29.65;15.95;;;;;;;17.58;67.75;102628.00;5045298;28;20016;-61
2022/05/06 10:25:42;;;;;;;23.83;14.60;;;;;;;17.73;68.25;102629.31;5043475;28;20033;-61
2022/05/06 10:34:07;;;;;;;24.95;15.32;;;;;;;18.14;65.09;102626.06;5044437;28;20125;-60
2022/05/06 10:36:41;;;;;;;25.08;15.30;;;;;;;18.37;66.16;102624.00;5047187;28;20041;-61
2022/05/06 10:39:27;;;;;;;28.65;15.45;;;;;;;18.51;65.26;102631.28;5047528;28;20016;-61
2022/05/06 10:42:16;;;;;;;22.88;14.45;;;;;;;18.68;64.29;102628.22;5047600;28;20040;-61
2022/05/06 10:44:44;;;;;;;23.23;14.70;;;;;;;18.80;62.75;102618.94;5044029;28;20097;-61
2022/05/06 10:47:13;;;;;;;20.00;12.95;;;;;;;18.95;61.49;102611.47;5046115;28;20028;-61
2022/05/06 10:49:38;;;;;;;21.45;12.30;;;;;;;19.04;59.85;102606.41;5047643;28;20040;-61
2022/05/06 10:52:15;;;;;;;22.48;12.05;;;;;;;19.28;60.55;102604.31;5047268;28;20028;-61
2022/05/06 10:54:59;;;;;;;21.17;13.43;;;;;;;19.40;59.35;102608.88;5046558;28;20035;-61
2022/05/06 10:57:30;;;;;;;22.30;13.07;;;;;;;19.40;58.33;102602.78;5046098;28;20032;-61
2022/05/06 11:00:01;;;;;;;21.55;13.52;;;;;;;19.68;58.77;102601.63;5047251;28;20022;-61
2022/05/06 11:02:32;;;;;;;19.92;12.68;;;;;;;19.91;58.02;102604.63;5048178;28;20036;-60
2022/05/06 11:05:03;;;;;;;18.30;11.57;;;;;;;19.86;55.33;102599.34;5047924;28;20102;-61
2022/05/06 11:07:30;;;;;;;15.85;10.50;;;;;;;19.87;54.73;102592.38;5046315;28;20021;-61
2022/05/06 11:09:56;;;;;;;18.27;11.13;;;;;;;19.91;54.68;102591.59;5044390;28;20468;-61
2022/05/06 11:12:33;;;;;;;20.23;12.13;;;;;;;20.11;55.60;102595.41;5046641;28;20047;-61
2022/05/06 11:14:59;;;;;;;21.08;12.18;;;;;;;20.28;55.57;102593.94;5038576;28;20022;-61
2022/05/06 11:17:27;;;;;;;17.10;11.05;;;;;;;20.41;54.37;102595.00;5040070;28;20095;-61
2022/05/06 11:19:53;;;;;;;21.80;11.87;;;;;;;20.43;52.98;102595.00;5048522;28;20047;-61
2022/05/06 11:22:20;;;;;;;16.67;10.32;;;;;;;20.47;51.08;102589.00;5043232;28;20292;-61
2022/05/06 11:24:46;;;;;;;16.70;10.73;;;;;;;20.59;51.73;102590.06;5042065;28;20033;-61
2022/05/06 11:27:16;;;;;;;18.83;10.77;;;;;;;20.79;53.22;102581.59;5046995;28;20052;-60
2022/05/06 11:30:00;;;;;;;15.63;8.90;;;;;;;20.92;51.51;102590.50;5046921;28;20029;-61
2022/05/06 11:32:28;;;;;;;15.63;7.93;;;;;;;20.94;50.44;102583.56;5045288;28;20067;-61
2022/05/06 11:35:10;;;;;;;15.27;9.10;;;;;;;21.16;51.41;102575.97;5044870;28;20028;-61
2022/05/06 11:37:40;;;;;;;15.32;9.20;;;;;;;21.10;49.99;102575.03;5045475;28;20032;-61
2022/05/06 11:42:50;;;;;;;17.20;10.57;;;;;;;20.97;51.01;102565.28;5041215;28;20048;-60
2022/05/06 11:48:11;;;;;;;17.08;10.88;;;;;;;20.66;51.36;102567.50;5046686;28;20539;-61
2022/05/06 11:50:38;;;;;;;18.50;11.15;;;;;;;20.62;51.64;102568.31;5043135;28;20036;-61
2022/05/06 11:53:13;;;;;;;12.88;9.10;;;;;;;20.66;52.41;102564.88;5048084;28;20017;-61
2022/05/06 11:55:41;;;;;;;11.82;7.55;;;;;;;20.68;50.16;102557.06;5046113;28;20043;-61
2022/05/06 11:58:10;;;;;;;12.25;7.90;;;;;;;20.65;49.44;102557.91;5045100;28;20060;-61
2022/05/06 12:00:36;;;;;;;13.60;8.05;;;;;;;20.53;48.68;102553.41;5045046;28;20032;-61
2022/05/06 12:03:12;;;;;;;12.93;8.25;;;;;;;20.57;49.71;102547.38;5044331;28;20037;-61